Startpagina
METAR-TAF:

METAR-TAF

Vliegvelden :

Honiara, Guadalcanal, Salomonseilanden

Honiara International Airport

breedte: 09-25S, lengte: 160-03E, hoogte: 8 m

Actueel weer

Dit bericht is 11 minuten geleden gemaakt, om 07:00 UTC
Wind 3 kt uit het westzuidwesten
Temperatuur 27°C
Vochtigheid 89%
Druk 1008 hPa
Zicht 10 km of meer
Verspreide wolken op 1700 ft
Geheel bewolkt op 30000 ft

METAR: AGGH 270700Z 25003KT 9999 SCT017 OVC300 27/25 Q1008

Tijdstip: 18:11 (07:11 UTC)

Verwachting

Dit bericht is 8 uur en het 26 minuten geleden gemaakt, om 22:45 UTC
Verwachting geldig van 27 om 00 UTC tot 27 om 24 UTC
Wind 8 kt uit het oostnoordoosten
Zicht: 1010 m
Verspreide wolken op 1900 ft
Verspreide wolken op 3000 ft
Verspreide wolken op 1600 ft
Verspreide wolken op 1700 ft, Cumulonimbus.
Verspreide wolken op 2800 ft

TAF: AGGH 262245Z 2700/2724 07008KT 9999 SCT019 SCT030 INTER 2700/2707 5000 TSSH SCT016 SCT017CB SCT028 T 31 32 29 27 Q 1010 1008 1008 1010

Waarnemingen en weersverwachtingen van meer dan 4000 vliegvelden (METAR en TAF).

De beschikbare stations zijn de gele en rode punten op de kaart.

Ga met uw muis naar het station om de naam te zien.

Klik dan om waarnemingen en weersverwachtingen te zien.

kaart wijzigen: klik op de groene knoppen met een zwart kruis om in te zoomen, op de groene knop met een streepje om uit te zoomen of op de groene pijlen voor aangrenzende kaarten.


METAR-TAF: